Latest Weather Observations for Rolleston Airport

IDQ60801

Issued at 9:35 am EST Sunday 23 November 2014 (issued every 30 minutes, with the page automatically refreshed every 10 minutes)

About weather observations | Map of weather stations | Latest weather observations for QLD | Other Formats
Station Details ID: 035129 Name: ROLLESTON AIRPORT Lat: -24.46 Lon: 148.63 Height: 219.45 m
Data from the previous 72 hours. | See also: Recent months at Rolleston Airport
Date/Time
EST
Temp
°C
App
Temp
°C
Dew
Point
Rel
Hum
%
Delta-T
°C
Wind Press
QNH
hPa
Press
MSL
hPa
Rain
since 9 am
mm
Dir
 
Spd
km/h
Gust
km/h
Spd
kts
Gust
kts
23/09:30am 28.6 30.4 18.7 55 6.4 N 7 13 4 7 1017.7 1016.5 0.0
23/09:00am 28.3 29.9 19.2 57 5.9 N 9 19 5 10 1017.9 1016.7 0.0
23/08:30am 27.3 28.5 19.1 61 5.3 NNW 11 20 6 11 1018.0 1016.8 0.0
23/08:00am 27.0 27.4 19.1 62 5.1 NW 15 22 8 12 1018.0 1016.8 0.0
23/07:30am 26.4 27.3 19.3 65 4.6 N 13 22 7 12 1017.8 1016.6 0.0
23/07:00am 25.7 27.0 19.3 67 4.1 NNW 11 19 6 10 1017.7 1016.5 0.0
23/06:30am 24.9 27.0 19.3 71 3.6 NW 7 13 4 7 1017.1 1015.8 0.0
23/06:00am 23.8 26.2 18.7 73 3.3 NNW 4 6 2 3 1016.9 1015.6 0.0
23/05:30am 23.1 25.5 18.0 73 3.2 WNW 2 4 1 2 1016.4 1015.2 0.0
23/05:00am 22.8 25.2 17.9 74 3.1 NNW 2 6 1 3 1015.9 1014.7 0.0
23/04:30am 23.6 25.8 18.3 72 3.4 N 4 7 2 4 1015.4 1014.2 0.0
23/04:00am 23.9 25.4 18.1 70 3.7 N 7 9 4 5 1015.1 1013.9 0.0
23/03:30am 24.0 24.6 17.7 68 4.0 NNW 11 13 6 7 1014.8 1013.6 0.0
23/03:00am 24.2 25.0 17.4 65 4.3 NNW 9 15 5 8 1014.6 1013.4 0.0
23/02:30am 24.2 25.5 17.0 64 4.5 N 6 7 3 4 1014.2 1013.0 0.0
23/02:00am 24.6 25.7 16.6 61 5.0 NNW 6 9 3 5 1014.2 1013.0 0.0
23/01:30am 25.2 26.4 16.9 60 5.2 N 6 9 3 5 1014.0 1012.8 0.0
23/01:00am 25.7 27.1 17.4 60 5.2 NNW 6 7 3 4 1014.1 1012.9 0.0
23/12:30am 26.8 28.2 17.8 57 5.7 N 7 13 4 7 1014.0 1012.8 0.0
23/12:00am 27.4 28.8 17.8 55 6.1 N 7 11 4 6 1014.2 1013.0 0.0
 
Date/Time
EST
Temp
°C
App
Temp
°C
Dew
Point
Rel
Hum
%
Delta-T
°C
Wind Press
QNH
hPa
Press
MSL
hPa
Rain
since 9 am
mm
Dir
 
Spd
km/h
Gust
km/h
Spd
kts
Gust
kts
22/11:30pm 28.2 29.1 18.3 55 6.4 N 11 17 6 9 1014.0 1012.8 0.0
22/11:00pm 29.0 29.9 18.4 52 6.9 N 11 17 6 9 1014.0 1012.8 0.0
22/10:30pm 29.8 30.0 18.6 51 7.3 N 15 22 8 12 1013.8 1012.6 0.0
22/10:00pm 31.1 31.9 18.1 46 8.4 NE 11 17 6 9 1013.5 1012.3 0.0
22/09:30pm 31.7 32.4 17.9 43 8.9 NE 11 15 6 8 1012.9 1011.6 0.0
22/09:00pm 31.8 32.4 17.7 43 9.1 ENE 11 15 6 8 1012.8 1011.5 0.0
22/08:30pm 32.3 32.5 17.7 41 9.4 ENE 13 17 7 9 1012.6 1011.3 0.0
22/08:00pm 32.7 32.9 17.7 40 9.7 ENE 13 19 7 10 1012.3 1011.0 0.0
22/07:30pm 32.7 33.0 16.1 37 10.5 E 9 11 5 6 1011.9 1010.6 0.0
22/07:00pm 33.9 34.9 16.3 35 11.2 ENE 6 7 3 4 1011.2 1010.0 0.0
22/06:30pm 34.4 35.4 16.3 34 11.5 ENE 6 7 3 4 1010.9 1009.7 0.0
22/06:00pm 35.4 36.5 16.7 33 12.0 ENE 6 7 3 4 1010.9 1009.7 0.0
22/05:30pm 35.8 36.7 16.0 30 12.6 ENE 6 7 3 4 1010.7 1009.5 0.0
22/05:00pm 35.7 36.5 15.9 30 12.6 N 6 11 3 6 1010.8 1009.6 0.0
22/04:30pm 35.9 35.8 16.1 30 12.7 NE 11 15 6 8 1010.6 1009.4 0.0
22/04:00pm 35.9 35.7 16.6 31 12.4 NE 13 19 7 10 1010.2 1009.0 0.0
22/03:30pm 36.0 36.9 16.7 31 12.4 NNE 7 13 4 7 1010.4 1009.2 0.0
22/03:00pm 35.9 36.6 17.1 32 12.2 NNE 9 17 5 9 1010.9 1009.7 0.0
22/02:30pm 36.4 37.1 17.0 31 12.6 N 9 17 5 9 1011.5 1010.3 0.0
22/02:00pm 36.3 36.0 17.4 32 12.3 N 15 28 8 15 1011.7 1010.5 0.0
22/01:30pm 35.2 36.3 17.9 36 11.3 ENE 9 15 5 8 1012.3 1011.0 0.0
22/01:00pm 34.9 36.0 18.0 36 11.1 N 9 17 5 9 1012.9 1011.6 0.0
22/12:30pm 34.8 35.3 18.4 38 10.8 NE 13 35 7 19 1013.3 1012.1 0.0
22/12:00pm 34.4 34.9 19.2 40 10.1 NE 15 28 8 15 1013.6 1012.4 0.0
22/11:30am 33.1 33.0 18.8 42 9.4 N 17 33 9 18 1014.3 1013.1 0.0
22/11:00am 32.3 33.0 18.8 44 8.9 NW 13 22 7 12 1014.8 1013.6 0.0
22/10:30am 31.5 32.2 18.8 46 8.3 N 13 26 7 14 1015.3 1014.1 0.0
22/10:00am 30.4 30.7 18.8 50 7.6 N 15 28 8 15 1015.8 1014.6 0.0
22/09:30am 29.3 29.6 18.7 52 6.9 NNW 15 28 8 15 1016.0 1014.8 0.0
22/09:00am 29.1 29.2 19.1 54 6.5 NNW 17 24 9 13 1016.2 1015.0 0.0
22/08:30am 28.4 28.8 19.1 57 6.1 N 15 20 8 11 1016.3 1015.1 0.0
22/08:00am 27.5 28.0 19.3 61 5.3 N 15 20 8 11 1016.4 1015.2 0.0
22/07:30am 26.3 26.6 18.7 63 4.9 N 15 24 8 13 1016.2 1015.0 0.0
22/07:00am 25.7 26.9 19.1 67 4.3 N 11 17 6 9 1015.9 1014.7 0.0
22/06:30am 24.7 26.3 19.1 71 3.6 N 9 15 5 8 1015.4 1014.2 0.0
22/06:00am 23.8 25.9 18.9 74 3.1 N 6 11 3 6 1015.1 1013.9 0.0
22/05:30am 23.7 24.8 18.8 74 3.1 NNE 11 17 6 9 1014.2 1013.0 0.0
22/05:00am 23.5 24.5 18.6 74 3.1 NNE 11 13 6 7 1013.8 1012.6 0.0
22/04:30am 23.5 25.3 18.4 73 3.2 N 6 7 3 4 1013.9 1012.7 0.0
22/04:00am 23.8 26.3 18.2 71 3.5 NNE 2 6 1 3 1013.6 1012.4 0.0
22/03:30am 23.5 25.6 18.2 72 3.4 NNE 4 6 2 3 1013.2 1011.9 0.0
22/03:00am 23.4 25.1 18.1 72 3.3 N 6 7 3 4 1013.0 1011.7 0.0
22/02:30am 23.7 24.0 17.9 70 3.7 NNW 13 22 7 12 1013.6 1012.4 0.0
22/02:00am 23.9 22.9 17.6 68 4.0 NW 19 26 10 14 1013.5 1012.3 0.0
22/01:30am 24.5 24.8 17.0 63 4.7 NNW 11 17 6 9 1013.3 1012.1 0.0
22/01:00am 24.6 25.2 16.8 62 4.9 N 9 13 5 7 1013.2 1011.9 0.0
22/12:30am 26.1 26.1 15.2 51 6.6 NNW 9 15 5 8 1013.2 1011.9 0.0
22/12:00am 27.2 27.4 14.6 46 7.6 N 7 11 4 6 1013.0 1011.7 0.0
 
Date/Time
EST
Temp
°C
App
Temp
°C
Dew
Point
Rel
Hum
%
Delta-T
°C
Wind Press
QNH
hPa
Press
MSL
hPa
Rain
since 9 am
mm
Dir
 
Spd
km/h
Gust
km/h
Spd
kts
Gust
kts
21/11:30pm 27.4 27.1 14.4 45 7.9 N 9 17 5 9 1012.9 1011.6 0.0
21/11:00pm 28.0 28.5 15.0 45 8.0 NW 6 9 3 5 1013.0 1011.7 0.0
21/10:30pm 28.1 28.8 16.1 48 7.5 NW 7 11 4 6 1013.0 1011.7 0.0
21/10:00pm 28.6 29.7 16.5 48 7.6 NNW 6 7 3 4 1012.8 1011.5 0.0
21/09:30pm 29.6 30.2 16.8 46 8.1 NNE 9 11 5 6 1012.6 1011.3 0.0
21/09:00pm 30.5 31.0 16.5 43 8.9 NNE 9 13 5 7 1012.4 1011.1 0.0
21/08:30pm 31.3 30.9 16.1 40 9.6 NE 13 17 7 9 1011.9 1010.6 0.0
21/08:00pm 31.9 32.0 15.4 37 10.3 NNE 9 13 5 7 1011.5 1010.3 0.0
21/07:30pm 32.3 32.6 14.9 35 10.8 NNE 7 11 4 6 1011.0 1009.8 0.0
21/07:00pm 33.2 32.7 14.8 33 11.5 NNE 11 15 6 8 1010.6 1009.4 0.0
21/06:30pm 34.1 33.1 14.6 31 12.1 NNE 13 22 7 12 1010.1 1008.9 0.0
21/06:00pm 35.0 32.8 14.3 29 12.9 NNE 19 24 10 13 1009.8 1008.6 0.0
21/05:30pm 35.6 33.9 14.8 28 13.0 NNE 17 26 9 14 1009.6 1008.4 0.0
21/05:00pm 36.3 34.3 14.9 28 13.5 N 19 26 10 14 1009.5 1008.3 0.0
21/04:30pm 36.1 34.4 14.7 28 13.4 N 17 24 9 13 1009.9 1008.7 0.0
21/04:00pm 36.3 34.3 14.9 28 13.5 NNE 19 30 10 16 1009.7 1008.5 0.0
21/03:30pm 35.8 34.2 15.0 29 13.1 N 17 26 9 14 1009.9 1008.7 0.0
21/03:00pm 35.6 34.1 15.3 29 12.8 NNE 17 20 9 11 1010.3 1009.1 0.0
21/02:30pm 36.2 35.5 16.4 31 12.7 NNE 15 24 8 13 1010.9 1009.7 0.0
21/02:00pm 35.8 34.4 17.0 32 12.2 N 20 30 11 16 1011.6 1010.4 0.0
21/01:30pm 34.4 33.8 16.7 34 11.4 WNW 15 24 8 13 1012.1 1010.8 0.0
21/01:00pm 34.1 33.4 17.3 36 10.9 NNE 17 28 9 15 1012.6 1011.3 0.0
21/12:30pm 33.2 32.4 17.0 38 10.4 N 17 28 9 15 1013.3 1012.1 0.0
21/12:00pm 32.7 32.9 17.7 40 9.7 N 13 24 7 13 1013.7 1012.5 0.0
21/11:30am 32.5 32.6 18.3 43 9.3 N 15 26 8 14 1014.4 1013.2 0.0
21/11:00am 32.2 32.9 18.8 45 8.8 N 13 24 7 13 1014.9 1013.7 0.0
21/10:30am 31.4 31.7 18.7 46 8.3 N 15 28 8 15 1015.3 1014.1 0.0
21/10:00am 29.8 30.0 18.6 51 7.3 N 15 22 8 12 1015.7 1014.5 0.0
21/09:30am 29.0 29.0 19.0 54 6.5 NNW 17 26 9 14 1016.1 1014.9 0.0
21/09:00am 27.8 28.5 18.8 58 5.8 N 13 26 7 14 1016.4 1015.2 0.0
21/08:30am 27.2 26.5 18.2 58 5.8 N 19 28 10 15 1016.4 1015.2 0.0
21/08:00am 26.2 27.1 19.3 65 4.5 N 13 20 7 11 1016.5 1015.3 0.0
21/07:30am 26.4 27.2 19.8 67 4.3 N 15 24 8 13 1016.7 1015.4 0.0
21/07:00am 24.6 26.6 19.9 75 3.1 NNW 9 13 5 7 1016.5 1015.3 0.0
21/06:30am 24.0 26.4 20.1 79 2.5 N 7 9 4 5 1016.2 1015.0 0.0
21/06:00am 23.3 25.9 20.1 82 2.1 N 6 7 3 4 1015.8 1014.6 0.0
21/05:30am 22.6 24.4 19.6 83 1.9 NNW 9 13 5 7 1015.7 1014.5 0.0
21/05:00am 22.6 24.8 19.6 83 1.9 N 7 13 4 7 1015.3 1014.1 0.0
21/04:30am 22.1 23.9 19.5 85 1.7 NNW 9 13 5 7 1015.0 1013.8 0.0
21/04:00am 21.9 24.4 19.1 84 1.8 NNW 4 6 2 3 1014.6 1013.4 0.0
21/03:30am 22.4 25.0 19.2 82 2.0 N 4 6 2 3 1014.5 1013.3 0.0
21/03:00am 23.0 25.3 19.4 80 2.3 N 6 11 3 6 1014.2 1013.0 0.0
21/02:30am 22.9 24.9 19.1 79 2.4 NNW 7 9 4 5 1014.3 1013.1 0.0
21/02:00am 23.4 25.0 19.1 77 2.8 N 9 15 5 8 1014.3 1013.1 0.0
21/01:30am 23.7 24.9 19.0 75 3.0 N 11 19 6 10 1014.2 1013.0 0.0
21/01:00am 23.7 24.8 18.1 71 3.5 NNW 9 11 5 6 1014.8 1013.6 0.0
21/12:30am 24.0 25.2 17.3 66 4.2 NW 7 11 4 6 1014.7 1013.5 0.0
21/12:00am 24.7 26.0 17.2 63 4.7 NNW 6 7 3 4 1014.7 1013.5 0.0
 
Date/Time
EST
Temp
°C
App
Temp
°C
Dew
Point
Rel
Hum
%
Delta-T
°C
Wind Press
QNH
hPa
Press
MSL
hPa
Rain
since 9 am
mm
Dir
 
Spd
km/h
Gust
km/h
Spd
kts
Gust
kts
20/11:30pm 25.3 26.9 17.0 60 5.2 NNW 4 7 2 4 1014.6 1013.4 0.0
20/11:00pm 26.1 27.3 16.9 57 5.8 N 6 11 3 6 1014.4 1013.2 0.0
20/10:30pm 26.7 27.6 16.6 54 6.3 N 7 9 4 5 1014.4 1013.2 0.0
20/10:00pm 28.0 27.0 16.6 50 7.2 NNE 17 22 9 12 1014.0 1012.8 0.0
20/09:30pm 28.9 27.1 16.1 46 8.0 NNE 20 30 11 16 1013.9 1012.7 0.0
20/09:00pm 29.5 27.7 15.6 43 8.6 NNE 19 30 10 16 1013.3 1012.1 0.0
20/08:30pm 29.9 28.6 14.8 39 9.3 NE 15 22 8 12 1012.6 1011.3 0.0
20/08:00pm 30.3 28.5 15.6 41 9.2 NE 19 26 10 14 1012.2 1010.9 0.0
20/07:30pm 30.8 29.9 16.8 43 8.9 NE 17 26 9 14 1012.0 1010.7 0.0
20/07:00pm 31.5 31.6 16.6 40 9.5 NNE 11 15 6 8 1011.6 1010.4 0.0
20/06:30pm 32.5 31.6 15.9 36 10.5 NNE 15 24 8 13 1011.4 1010.2 0.0
20/06:00pm 33.3 32.0 15.8 35 11.1 NNE 17 24 9 13 1011.2 1010.0 0.0
20/05:30pm 33.8 31.9 15.7 33 11.4 NE 20 30 11 16 1010.8 1009.6 0.0
20/05:00pm 34.5 32.7 15.9 33 11.8 NNE 20 32 11 17 1010.4 1009.2 0.0
20/04:30pm 34.6 32.2 15.5 32 12.1 NNE 22 33 12 18 1010.3 1009.1 0.0
20/04:00pm 35.1 32.9 14.4 29 12.9 N 19 30 10 16 1010.4 1009.2 0.0
20/03:30pm 35.5 34.4 15.3 30 12.8 N 15 28 8 15 1010.7 1009.5 0.0
20/03:00pm 35.1 33.8 15.9 31 12.2 N 17 28 9 15 1010.9 1009.7 0.0
20/02:30pm 34.4 32.5 15.8 33 11.8 N 20 33 11 18 1011.4 1010.2 0.0
20/02:00pm 34.9 33.7 16.2 32 11.9 NNE 17 26 9 14 1012.0 1010.7 0.0
20/01:30pm 33.9 33.6 15.4 33 11.6 N 11 24 6 13 1012.6 1011.3 0.0
20/01:00pm 33.6 32.9 16.5 36 10.9 N 15 26 8 14 1013.3 1012.1 0.0
20/12:30pm 31.9 30.7 16.2 38 9.9 N 17 32 9 17 1013.9 1012.7 0.0
20/12:00pm 31.8 30.7 17.3 42 9.3 N 19 32 10 17 1014.6 1013.4 0.0
20/11:30am 31.4 32.0 18.7 46 8.3 N 13 30 7 16 1015.1 1013.9 0.0
20/11:00am 30.7 30.8 19.1 50 7.6 N 17 24 9 13 1015.7 1014.5 0.0
20/10:30am 29.7 29.9 19.4 54 6.8 N 17 28 9 15 1016.1 1014.9 0.0
20/10:00am 28.2 28.2 18.9 57 6.0 N 17 24 9 13 1016.7 1015.4 0.0

Other Formats:

Comma delimited format used in spreadsheet applications
http://www.bom.gov.au/fwo/IDQ60801/IDQ60801.94396.axf

JavaScript Object Notation format (JSON) in row-major order
http://www.bom.gov.au/fwo/IDQ60801/IDQ60801.94396.json